sensor_id;sensor_type;location;lat;lon;timestamp;temperature;humidity
2571;DHT22;1295;51.130;6.732;2022-11-23T00:00:43;8.20;99.90
2571;DHT22;1295;51.130;6.732;2022-11-23T00:03:11;8.20;99.90
2571;DHT22;1295;51.130;6.732;2022-11-23T00:05:34;8.20;99.90
2571;DHT22;1295;51.130;6.732;2022-11-23T00:07:59;8.30;99.90
2571;DHT22;1295;51.130;6.732;2022-11-23T00:10:25;8.30;99.90
2571;DHT22;1295;51.130;6.732;2022-11-23T00:12:51;8.40;99.90
2571;DHT22;1295;51.130;6.732;2022-11-23T00:15:16;8.40;99.90
2571;DHT22;1295;51.130;6.732;2022-11-23T00:17:42;8.50;99.90
2571;DHT22;1295;51.130;6.732;2022-11-23T00:20:09;8.50;99.90
2571;DHT22;1295;51.130;6.732;2022-11-23T00:22:35;8.50;99.90
2571;DHT22;1295;51.130;6.732;2022-11-23T00:25:00;8.40;99.90
2571;DHT22;1295;51.130;6.732;2022-11-23T00:27:27;8.40;99.90
2571;DHT22;1295;51.130;6.732;2022-11-23T00:29:53;8.50;99.90
2571;DHT22;1295;51.130;6.732;2022-11-23T00:32:19;8.50;99.90
2571;DHT22;1295;51.130;6.732;2022-11-23T00:34:45;8.60;99.90
2571;DHT22;1295;51.130;6.732;2022-11-23T00:37:11;8.50;99.90
2571;DHT22;1295;51.130;6.732;2022-11-23T00:39:38;8.60;99.90
2571;DHT22;1295;51.130;6.732;2022-11-23T00:42:03;8.60;99.90
2571;DHT22;1295;51.130;6.732;2022-11-23T00:44:29;8.50;99.90
2571;DHT22;1295;51.130;6.732;2022-11-23T00:46:54;8.70;99.90
2571;DHT22;1295;51.130;6.732;2022-11-23T00:49:20;8.60;99.90
2571;DHT22;1295;51.130;6.732;2022-11-23T00:51:47;8.50;99.90
2571;DHT22;1295;51.130;6.732;2022-11-23T00:54:12;8.50;99.90
2571;DHT22;1295;51.130;6.732;2022-11-23T00:56:38;8.70;99.90
2571;DHT22;1295;51.130;6.732;2022-11-23T00:59:04;8.70;99.90
2571;DHT22;1295;51.130;6.732;2022-11-23T01:01:31;8.70;99.90
2571;DHT22;1295;51.130;6.732;2022-11-23T01:03:56;8.70;99.90
2571;DHT22;1295;51.130;6.732;2022-11-23T01:06:25;8.70;99.90
2571;DHT22;1295;51.130;6.732;2022-11-23T01:08:53;8.60;99.90
2571;DHT22;1295;51.130;6.732;2022-11-23T01:11:18;8.60;99.90
2571;DHT22;1295;51.130;6.732;2022-11-23T01:13:44;8.70;99.90
2571;DHT22;1295;51.130;6.732;2022-11-23T01:16:19;8.60;99.90
2571;DHT22;1295;51.130;6.732;2022-11-23T01:18:45;8.60;99.90
2571;DHT22;1295;51.130;6.732;2022-11-23T01:21:11;8.60;99.90
2571;DHT22;1295;51.130;6.732;2022-11-23T01:23:37;8.60;99.90
2571;DHT22;1295;51.130;6.732;2022-11-23T01:26:05;8.60;99.90
2571;DHT22;1295;51.130;6.732;2022-11-23T01:28:30;8.80;99.90
2571;DHT22;1295;51.130;6.732;2022-11-23T01:31:02;8.70;99.90
2571;DHT22;1295;51.130;6.732;2022-11-23T01:33:21;8.70;99.90
2571;DHT22;1295;51.130;6.732;2022-11-23T01:35:47;8.80;99.90
2571;DHT22;1295;51.130;6.732;2022-11-23T01:38:13;8.80;99.90
2571;DHT22;1295;51.130;6.732;2022-11-23T01:40:40;8.80;99.90
2571;DHT22;1295;51.130;6.732;2022-11-23T01:43:05;8.70;99.90
2571;DHT22;1295;51.130;6.732;2022-11-23T01:45:32;8.80;99.90
2571;DHT22;1295;51.130;6.732;2022-11-23T01:47:56;8.80;99.90
2571;DHT22;1295;51.130;6.732;2022-11-23T01:50:21;8.80;99.90
2571;DHT22;1295;51.130;6.732;2022-11-23T01:52:47;8.80;99.90
2571;DHT22;1295;51.130;6.732;2022-11-23T01:55:13;8.70;99.90
2571;DHT22;1295;51.130;6.732;2022-11-23T01:57:39;8.70;99.90
2571;DHT22;1295;51.130;6.732;2022-11-23T02:00:06;8.80;99.90
2571;DHT22;1295;51.130;6.732;2022-11-23T02:02:32;8.70;99.90
2571;DHT22;1295;51.130;6.732;2022-11-23T02:04:58;8.70;99.90
2571;DHT22;1295;51.130;6.732;2022-11-23T02:07:23;8.70;99.90
2571;DHT22;1295;51.130;6.732;2022-11-23T02:09:49;8.70;99.90
2571;DHT22;1295;51.130;6.732;2022-11-23T02:12:15;8.80;99.90
2571;DHT22;1295;51.130;6.732;2022-11-23T02:14:40;8.70;99.90
2571;DHT22;1295;51.130;6.732;2022-11-23T02:17:06;8.80;99.90
2571;DHT22;1295;51.130;6.732;2022-11-23T02:19:42;8.80;99.90
2571;DHT22;1295;51.130;6.732;2022-11-23T02:22:06;8.80;99.90
2571;DHT22;1295;51.130;6.732;2022-11-23T02:24:32;8.70;99.90
2571;DHT22;1295;51.130;6.732;2022-11-23T02:26:56;8.70;99.90
2571;DHT22;1295;51.130;6.732;2022-11-23T02:29:23;8.60;99.90
2571;DHT22;1295;51.130;6.732;2022-11-23T02:31:48;8.60;99.90
2571;DHT22;1295;51.130;6.732;2022-11-23T02:34:15;8.60;99.90
2571;DHT22;1295;51.130;6.732;2022-11-23T02:36:42;8.60;99.90
2571;DHT22;1295;51.130;6.732;2022-11-23T02:39:10;8.70;99.90
2571;DHT22;1295;51.130;6.732;2022-11-23T02:41:38;8.60;99.90
2571;DHT22;1295;51.130;6.732;2022-11-23T02:44:02;8.50;99.90
2571;DHT22;1295;51.130;6.732;2022-11-23T02:46:27;8.50;99.90
2571;DHT22;1295;51.130;6.732;2022-11-23T02:48:53;8.50;99.90
2571;DHT22;1295;51.130;6.732;2022-11-23T02:51:19;8.50;99.90
2571;DHT22;1295;51.130;6.732;2022-11-23T02:53:45;8.50;99.90
2571;DHT22;1295;51.130;6.732;2022-11-23T02:56:11;8.50;99.90
2571;DHT22;1295;51.130;6.732;2022-11-23T02:58:36;8.50;99.90
2571;DHT22;1295;51.130;6.732;2022-11-23T03:01:02;8.50;99.90
2571;DHT22;1295;51.130;6.732;2022-11-23T03:03:28;8.50;99.90
2571;DHT22;1295;51.130;6.732;2022-11-23T03:05:53;8.50;99.90
2571;DHT22;1295;51.130;6.732;2022-11-23T03:08:19;8.60;99.90
2571;DHT22;1295;51.130;6.732;2022-11-23T03:10:44;8.50;99.90
2571;DHT22;1295;51.130;6.732;2022-11-23T03:13:10;8.50;99.90
2571;DHT22;1295;51.130;6.732;2022-11-23T03:15:36;8.50;99.90
2571;DHT22;1295;51.130;6.732;2022-11-23T03:18:02;8.50;99.90
2571;DHT22;1295;51.130;6.732;2022-11-23T03:20:28;8.50;99.90
2571;DHT22;1295;51.130;6.732;2022-11-23T03:22:54;8.50;99.90
2571;DHT22;1295;51.130;6.732;2022-11-23T03:25:20;8.50;99.90
2571;DHT22;1295;51.130;6.732;2022-11-23T03:27:45;8.50;99.90
2571;DHT22;1295;51.130;6.732;2022-11-23T03:30:11;8.40;99.90
2571;DHT22;1295;51.130;6.732;2022-11-23T03:32:37;8.50;99.90
2571;DHT22;1295;51.130;6.732;2022-11-23T03:35:03;8.40;99.90
2571;DHT22;1295;51.130;6.732;2022-11-23T03:37:28;8.40;99.90
2571;DHT22;1295;51.130;6.732;2022-11-23T03:39:54;8.40;99.90
2571;DHT22;1295;51.130;6.732;2022-11-23T03:42:20;8.50;99.90
2571;DHT22;1295;51.130;6.732;2022-11-23T03:44:45;8.50;99.90
2571;DHT22;1295;51.130;6.732;2022-11-23T03:47:11;8.50;99.90
2571;DHT22;1295;51.130;6.732;2022-11-23T03:49:36;8.40;99.90
2571;DHT22;1295;51.130;6.732;2022-11-23T03:52:02;8.40;99.90
2571;DHT22;1295;51.130;6.732;2022-11-23T03:54:28;8.40;99.90
2571;DHT22;1295;51.130;6.732;2022-11-23T03:56:54;8.40;99.90
2571;DHT22;1295;51.130;6.732;2022-11-23T03:59:19;8.40;99.90
2571;DHT22;1295;51.130;6.732;2022-11-23T04:01:46;8.40;99.90
2571;DHT22;1295;51.130;6.732;2022-11-23T04:04:11;8.40;99.90
2571;DHT22;1295;51.130;6.732;2022-11-23T04:06:38;8.40;99.90
2571;DHT22;1295;51.130;6.732;2022-11-23T04:09:03;8.40;99.90
2571;DHT22;1295;51.130;6.732;2022-11-23T04:11:29;8.40;99.90
2571;DHT22;1295;51.130;6.732;2022-11-23T04:13:54;8.40;99.90
2571;DHT22;1295;51.130;6.732;2022-11-23T04:16:20;8.40;99.90
2571;DHT22;1295;51.130;6.732;2022-11-23T04:18:46;8.40;99.90
2571;DHT22;1295;51.130;6.732;2022-11-23T04:21:12;8.40;99.90
2571;DHT22;1295;51.130;6.732;2022-11-23T04:23:38;8.40;99.90
2571;DHT22;1295;51.130;6.732;2022-11-23T04:26:04;8.40;99.90
2571;DHT22;1295;51.130;6.732;2022-11-23T04:28:30;8.40;99.90
2571;DHT22;1295;51.130;6.732;2022-11-23T04:30:55;8.40;99.90
2571;DHT22;1295;51.130;6.732;2022-11-23T04:33:21;8.40;99.90
2571;DHT22;1295;51.130;6.732;2022-11-23T04:35:47;8.40;99.90
2571;DHT22;1295;51.130;6.732;2022-11-23T04:38:12;8.40;99.90
2571;DHT22;1295;51.130;6.732;2022-11-23T04:40:38;8.40;99.90
2571;DHT22;1295;51.130;6.732;2022-11-23T04:43:04;8.40;99.90
2571;DHT22;1295;51.130;6.732;2022-11-23T04:45:36;8.40;99.90
2571;DHT22;1295;51.130;6.732;2022-11-23T04:48:06;8.40;99.90
2571;DHT22;1295;51.130;6.732;2022-11-23T04:50:32;8.40;99.90
2571;DHT22;1295;51.130;6.732;2022-11-23T04:52:57;8.40;99.90
2571;DHT22;1295;51.130;6.732;2022-11-23T04:55:23;8.40;99.90
2571;DHT22;1295;51.130;6.732;2022-11-23T04:57:56;8.40;99.90
2571;DHT22;1295;51.130;6.732;2022-11-23T05:00:22;8.40;99.90
2571;DHT22;1295;51.130;6.732;2022-11-23T05:02:47;8.30;99.90
2571;DHT22;1295;51.130;6.732;2022-11-23T05:05:14;8.30;99.90
2571;DHT22;1295;51.130;6.732;2022-11-23T05:07:39;8.30;99.90
2571;DHT22;1295;51.130;6.732;2022-11-23T05:10:06;8.30;99.90
2571;DHT22;1295;51.130;6.732;2022-11-23T05:12:32;8.30;99.90
2571;DHT22;1295;51.130;6.732;2022-11-23T05:14:58;8.40;99.90
2571;DHT22;1295;51.130;6.732;2022-11-23T05:17:24;8.40;99.90
2571;DHT22;1295;51.130;6.732;2022-11-23T05:19:49;8.30;99.90
2571;DHT22;1295;51.130;6.732;2022-11-23T05:22:15;8.30;99.90
2571;DHT22;1295;51.130;6.732;2022-11-23T05:24:40;8.30;99.90
2571;DHT22;1295;51.130;6.732;2022-11-23T05:27:06;8.30;99.90
2571;DHT22;1295;51.130;6.732;2022-11-23T05:29:39;8.30;99.90
2571;DHT22;1295;51.130;6.732;2022-11-23T05:32:05;8.30;99.90
2571;DHT22;1295;51.130;6.732;2022-11-23T05:34:31;8.30;99.90
2571;DHT22;1295;51.130;6.732;2022-11-23T05:36:56;8.30;99.90
2571;DHT22;1295;51.130;6.732;2022-11-23T05:39:22;8.40;99.90
2571;DHT22;1295;51.130;6.732;2022-11-23T05:41:48;8.40;99.90
2571;DHT22;1295;51.130;6.732;2022-11-23T05:44:14;8.50;99.90
2571;DHT22;1295;51.130;6.732;2022-11-23T05:46:39;8.40;99.90
2571;DHT22;1295;51.130;6.732;2022-11-23T05:49:05;8.40;99.90
2571;DHT22;1295;51.130;6.732;2022-11-23T05:51:31;8.20;99.90
2571;DHT22;1295;51.130;6.732;2022-11-23T05:53:57;8.20;99.90
2571;DHT22;1295;51.130;6.732;2022-11-23T05:56:22;8.20;99.90
2571;DHT22;1295;51.130;6.732;2022-11-23T05:58:48;8.20;99.90
2571;DHT22;1295;51.130;6.732;2022-11-23T06:01:14;8.30;99.90
2571;DHT22;1295;51.130;6.732;2022-11-23T06:03:39;8.30;99.90
2571;DHT22;1295;51.130;6.732;2022-11-23T06:06:05;8.30;99.90
2571;DHT22;1295;51.130;6.732;2022-11-23T06:08:31;8.30;99.90
2571;DHT22;1295;51.130;6.732;2022-11-23T06:10:59;8.20;99.90
2571;DHT22;1295;51.130;6.732;2022-11-23T06:13:23;8.20;99.90
2571;DHT22;1295;51.130;6.732;2022-11-23T06:15:48;8.30;99.90
2571;DHT22;1295;51.130;6.732;2022-11-23T06:18:14;8.40;99.90
2571;DHT22;1295;51.130;6.732;2022-11-23T06:20:40;8.40;99.90
2571;DHT22;1295;51.130;6.732;2022-11-23T06:23:07;8.30;99.90
2571;DHT22;1295;51.130;6.732;2022-11-23T06:25:33;8.40;99.90
2571;DHT22;1295;51.130;6.732;2022-11-23T06:27:59;8.40;99.90
2571;DHT22;1295;51.130;6.732;2022-11-23T06:30:25;8.30;99.90
2571;DHT22;1295;51.130;6.732;2022-11-23T06:32:50;8.40;99.90
2571;DHT22;1295;51.130;6.732;2022-11-23T06:35:16;8.30;99.90
2571;DHT22;1295;51.130;6.732;2022-11-23T06:37:41;8.30;99.90
2571;DHT22;1295;51.130;6.732;2022-11-23T06:40:09;8.40;99.90
2571;DHT22;1295;51.130;6.732;2022-11-23T06:42:35;8.40;99.90
2571;DHT22;1295;51.130;6.732;2022-11-23T06:45:05;8.40;99.90
2571;DHT22;1295;51.130;6.732;2022-11-23T06:47:41;8.40;99.90
2571;DHT22;1295;51.130;6.732;2022-11-23T06:50:07;8.40;99.90
2571;DHT22;1295;51.130;6.732;2022-11-23T06:52:33;8.40;99.90
2571;DHT22;1295;51.130;6.732;2022-11-23T06:54:58;8.40;99.90
2571;DHT22;1295;51.130;6.732;2022-11-23T06:57:24;8.40;99.90
2571;DHT22;1295;51.130;6.732;2022-11-23T06:59:50;8.40;99.90
2571;DHT22;1295;51.130;6.732;2022-11-23T07:02:16;8.40;99.90
2571;DHT22;1295;51.130;6.732;2022-11-23T07:04:41;8.40;99.90
2571;DHT22;1295;51.130;6.732;2022-11-23T07:07:07;8.50;99.90
2571;DHT22;1295;51.130;6.732;2022-11-23T07:09:32;8.40;99.90
2571;DHT22;1295;51.130;6.732;2022-11-23T07:11:58;8.40;99.90
2571;DHT22;1295;51.130;6.732;2022-11-23T07:14:23;8.40;99.90
2571;DHT22;1295;51.130;6.732;2022-11-23T07:16:49;8.40;99.90
2571;DHT22;1295;51.130;6.732;2022-11-23T07:19:14;8.40;99.90
2571;DHT22;1295;51.130;6.732;2022-11-23T07:21:40;8.40;99.90
2571;DHT22;1295;51.130;6.732;2022-11-23T07:24:06;8.40;99.90
2571;DHT22;1295;51.130;6.732;2022-11-23T07:26:31;8.40;99.90
2571;DHT22;1295;51.130;6.732;2022-11-23T07:28:57;8.40;99.90
2571;DHT22;1295;51.130;6.732;2022-11-23T07:31:30;8.30;99.90
2571;DHT22;1295;51.130;6.732;2022-11-23T07:33:56;8.20;99.90
2571;DHT22;1295;51.130;6.732;2022-11-23T07:36:22;8.20;99.90
2571;DHT22;1295;51.130;6.732;2022-11-23T07:38:48;8.20;99.90
2571;DHT22;1295;51.130;6.732;2022-11-23T07:41:14;8.20;99.90
2571;DHT22;1295;51.130;6.732;2022-11-23T07:43:39;8.20;99.90
2571;DHT22;1295;51.130;6.732;2022-11-23T07:46:05;8.10;99.90
2571;DHT22;1295;51.130;6.732;2022-11-23T07:48:35;8.20;99.90
2571;DHT22;1295;51.130;6.732;2022-11-23T07:51:06;8.20;99.90
2571;DHT22;1295;51.130;6.732;2022-11-23T07:53:32;8.20;99.90
2571;DHT22;1295;51.130;6.732;2022-11-23T07:55:58;8.20;99.90
2571;DHT22;1295;51.130;6.732;2022-11-23T07:58:23;8.20;99.90
2571;DHT22;1295;51.130;6.732;2022-11-23T08:00:49;8.20;99.90
2571;DHT22;1295;51.130;6.732;2022-11-23T08:03:14;8.30;99.90
2571;DHT22;1295;51.130;6.732;2022-11-23T08:05:47;8.30;99.90
2571;DHT22;1295;51.130;6.732;2022-11-23T08:08:13;8.40;99.90
2571;DHT22;1295;51.130;6.732;2022-11-23T08:10:39;8.40;99.90
2571;DHT22;1295;51.130;6.732;2022-11-23T08:13:06;8.40;99.90
2571;DHT22;1295;51.130;6.732;2022-11-23T08:15:31;8.30;99.90
2571;DHT22;1295;51.130;6.732;2022-11-23T08:17:57;8.40;99.90
2571;DHT22;1295;51.130;6.732;2022-11-23T08:20:23;8.30;99.90
2571;DHT22;1295;51.130;6.732;2022-11-23T08:22:49;8.30;99.90
2571;DHT22;1295;51.130;6.732;2022-11-23T08:25:16;8.30;99.90
2571;DHT22;1295;51.130;6.732;2022-11-23T08:27:41;8.30;99.90
2571;DHT22;1295;51.130;6.732;2022-11-23T08:30:08;8.30;99.90
2571;DHT22;1295;51.130;6.732;2022-11-23T08:32:34;8.30;99.90
2571;DHT22;1295;51.130;6.732;2022-11-23T08:34:59;8.20;99.90
2571;DHT22;1295;51.130;6.732;2022-11-23T08:37:25;8.40;99.90
2571;DHT22;1295;51.130;6.732;2022-11-23T08:39:51;8.30;99.90
2571;DHT22;1295;51.130;6.732;2022-11-23T08:42:18;8.40;99.90
2571;DHT22;1295;51.130;6.732;2022-11-23T08:44:43;8.40;99.90
2571;DHT22;1295;51.130;6.732;2022-11-23T08:47:09;8.40;99.90
2571;DHT22;1295;51.130;6.732;2022-11-23T08:49:35;8.40;99.90
2571;DHT22;1295;51.130;6.732;2022-11-23T08:52:01;8.40;99.90
2571;DHT22;1295;51.130;6.732;2022-11-23T08:54:27;8.40;99.90
2571;DHT22;1295;51.130;6.732;2022-11-23T08:56:52;8.40;99.90
2571;DHT22;1295;51.130;6.732;2022-11-23T08:59:18;8.50;99.90
2571;DHT22;1295;51.130;6.732;2022-11-23T09:01:43;8.50;99.90
2571;DHT22;1295;51.130;6.732;2022-11-23T09:04:09;8.50;99.90
2571;DHT22;1295;51.130;6.732;2022-11-23T09:06:35;8.50;99.90
2571;DHT22;1295;51.130;6.732;2022-11-23T09:09:02;8.50;99.90
2571;DHT22;1295;51.130;6.732;2022-11-23T09:11:28;8.50;99.90
2571;DHT22;1295;51.130;6.732;2022-11-23T09:13:54;8.60;99.90
2571;DHT22;1295;51.130;6.732;2022-11-23T09:16:19;8.60;99.90
2571;DHT22;1295;51.130;6.732;2022-11-23T09:18:45;8.70;99.90
2571;DHT22;1295;51.130;6.732;2022-11-23T09:21:11;9.00;99.90
2571;DHT22;1295;51.130;6.732;2022-11-23T09:23:37;9.40;99.90
2571;DHT22;1295;51.130;6.732;2022-11-23T09:26:03;9.30;99.90
2571;DHT22;1295;51.130;6.732;2022-11-23T09:28:29;9.60;99.90
2571;DHT22;1295;51.130;6.732;2022-11-23T09:30:55;9.40;99.90
2571;DHT22;1295;51.130;6.732;2022-11-23T09:33:21;9.80;99.90
2571;DHT22;1295;51.130;6.732;2022-11-23T09:35:46;10.40;99.90
2571;DHT22;1295;51.130;6.732;2022-11-23T09:38:12;10.80;99.90
2571;DHT22;1295;51.130;6.732;2022-11-23T09:40:38;11.00;99.90
2571;DHT22;1295;51.130;6.732;2022-11-23T09:43:16;11.70;99.90
2571;DHT22;1295;51.130;6.732;2022-11-23T09:45:40;11.70;99.90
2571;DHT22;1295;51.130;6.732;2022-11-23T09:48:14;11.70;99.90
2571;DHT22;1295;51.130;6.732;2022-11-23T09:50:44;11.50;99.90
2571;DHT22;1295;51.130;6.732;2022-11-23T09:53:09;11.00;99.90
2571;DHT22;1295;51.130;6.732;2022-11-23T09:55:40;11.00;99.90
2571;DHT22;1295;51.130;6.732;2022-11-23T09:58:05;11.10;99.90
2571;DHT22;1295;51.130;6.732;2022-11-23T10:00:37;11.60;99.90
2571;DHT22;1295;51.130;6.732;2022-11-23T10:03:02;11.70;99.90
2571;DHT22;1295;51.130;6.732;2022-11-23T10:05:28;12.00;99.90
2571;DHT22;1295;51.130;6.732;2022-11-23T10:08:40;12.20;99.90
2571;DHT22;1295;51.130;6.732;2022-11-23T10:10:56;12.20;99.90
2571;DHT22;1295;51.130;6.732;2022-11-23T10:13:37;12.00;99.90
2571;DHT22;1295;51.130;6.732;2022-11-23T10:16:25;12.00;99.90
2571;DHT22;1295;51.130;6.732;2022-11-23T10:21:50;12.30;99.90
2571;DHT22;1295;51.130;6.732;2022-11-23T10:24:15;11.50;99.90
2571;DHT22;1295;51.130;6.732;2022-11-23T10:26:40;11.60;99.90
2571;DHT22;1295;51.130;6.732;2022-11-23T10:29:09;11.50;99.90
2571;DHT22;1295;51.130;6.732;2022-11-23T10:31:31;10.70;99.90
2571;DHT22;1295;51.130;6.732;2022-11-23T10:33:59;10.80;99.90
2571;DHT22;1295;51.130;6.732;2022-11-23T10:36:22;11.10;99.90
2571;DHT22;1295;51.130;6.732;2022-11-23T10:38:49;10.50;99.90
2571;DHT22;1295;51.130;6.732;2022-11-23T10:41:14;10.50;99.90
2571;DHT22;1295;51.130;6.732;2022-11-23T10:46:25;10.30;99.90
2571;DHT22;1295;51.130;6.732;2022-11-23T10:48:50;10.10;99.90
2571;DHT22;1295;51.130;6.732;2022-11-23T10:51:27;10.10;99.90
2571;DHT22;1295;51.130;6.732;2022-11-23T10:53:54;10.80;99.90
2571;DHT22;1295;51.130;6.732;2022-11-23T10:56:18;10.70;99.90
2571;DHT22;1295;51.130;6.732;2022-11-23T10:58:44;11.70;99.90
2571;DHT22;1295;51.130;6.732;2022-11-23T11:01:14;11.20;99.90
2571;DHT22;1295;51.130;6.732;2022-11-23T11:03:39;11.20;99.90
2571;DHT22;1295;51.130;6.732;2022-11-23T11:06:04;11.80;99.90
2571;DHT22;1295;51.130;6.732;2022-11-23T11:08:31;11.40;99.90
2571;DHT22;1295;51.130;6.732;2022-11-23T11:11:07;10.70;99.90
2571;DHT22;1295;51.130;6.732;2022-11-23T11:13:45;11.00;99.90
2571;DHT22;1295;51.130;6.732;2022-11-23T11:16:21;11.20;99.90
2571;DHT22;1295;51.130;6.732;2022-11-23T11:18:45;11.20;99.90
2571;DHT22;1295;51.130;6.732;2022-11-23T11:21:18;11.50;99.90
2571;DHT22;1295;51.130;6.732;2022-11-23T11:23:44;12.00;99.90
2571;DHT22;1295;51.130;6.732;2022-11-23T11:26:15;11.70;99.90
2571;DHT22;1295;51.130;6.732;2022-11-23T11:28:37;11.60;99.90
2571;DHT22;1295;51.130;6.732;2022-11-23T11:34:08;11.90;99.90
2571;DHT22;1295;51.130;6.732;2022-11-23T11:36:35;11.60;99.90
2571;DHT22;1295;51.130;6.732;2022-11-23T11:38:56;11.10;99.90
2571;DHT22;1295;51.130;6.732;2022-11-23T11:41:21;11.30;99.90
2571;DHT22;1295;51.130;6.732;2022-11-23T11:43:48;11.20;99.90
2571;DHT22;1295;51.130;6.732;2022-11-23T11:46:14;11.20;99.90
2571;DHT22;1295;51.130;6.732;2022-11-23T11:48:42;11.60;99.90
2571;DHT22;1295;51.130;6.732;2022-11-23T11:51:08;10.80;99.90
2571;DHT22;1295;51.130;6.732;2022-11-23T11:53:36;10.30;99.90
2571;DHT22;1295;51.130;6.732;2022-11-23T11:56:03;11.40;99.90
2571;DHT22;1295;51.130;6.732;2022-11-23T11:58:26;11.80;99.90
2571;DHT22;1295;51.130;6.732;2022-11-23T12:01:12;11.50;99.90
2571;DHT22;1295;51.130;6.732;2022-11-23T12:03:39;12.20;99.90
2571;DHT22;1295;51.130;6.732;2022-11-23T12:06:05;12.20;99.90
2571;DHT22;1295;51.130;6.732;2022-11-23T12:08:34;11.90;99.90
2571;DHT22;1295;51.130;6.732;2022-11-23T12:10:58;12.30;99.90
2571;DHT22;1295;51.130;6.732;2022-11-23T12:13:29;11.40;99.90
2571;DHT22;1295;51.130;6.732;2022-11-23T12:16:07;11.00;99.90
2571;DHT22;1295;51.130;6.732;2022-11-23T12:18:47;11.30;99.90
2571;DHT22;1295;51.130;6.732;2022-11-23T12:21:15;11.30;99.90
2571;DHT22;1295;51.130;6.732;2022-11-23T12:23:53;11.90;99.90
2571;DHT22;1295;51.130;6.732;2022-11-23T12:26:25;11.10;99.90
2571;DHT22;1295;51.130;6.732;2022-11-23T12:31:30;10.70;99.90
2571;DHT22;1295;51.130;6.732;2022-11-23T12:34:16;10.70;99.90
2571;DHT22;1295;51.130;6.732;2022-11-23T12:37:00;11.10;99.90
2571;DHT22;1295;51.130;6.732;2022-11-23T12:39:31;11.10;99.90
2571;DHT22;1295;51.130;6.732;2022-11-23T12:42:11;11.60;99.90
2571;DHT22;1295;51.130;6.732;2022-11-23T12:44:40;11.40;99.90
2571;DHT22;1295;51.130;6.732;2022-11-23T12:47:16;11.80;99.90
2571;DHT22;1295;51.130;6.732;2022-11-23T12:49:40;11.10;99.90
2571;DHT22;1295;51.130;6.732;2022-11-23T12:52:22;11.30;99.90
2571;DHT22;1295;51.130;6.732;2022-11-23T12:56:09;11.90;99.90
2571;DHT22;1295;51.130;6.732;2022-11-23T12:57:43;11.70;99.90
2571;DHT22;1295;51.130;6.732;2022-11-23T13:00:22;12.20;99.90
2571;DHT22;1295;51.130;6.732;2022-11-23T13:03:15;12.00;99.90
2571;DHT22;1295;51.130;6.732;2022-11-23T13:05:48;11.30;99.90
2571;DHT22;1295;51.130;6.732;2022-11-23T13:08:26;11.60;99.90
2571;DHT22;1295;51.130;6.732;2022-11-23T13:14:15;12.00;99.90
2571;DHT22;1295;51.130;6.732;2022-11-23T13:16:42;11.00;99.90
2571;DHT22;1295;51.130;6.732;2022-11-23T13:22:00;10.70;99.90
2571;DHT22;1295;51.130;6.732;2022-11-23T13:24:30;10.70;99.90
2571;DHT22;1295;51.130;6.732;2022-11-23T13:34:43;10.60;99.90
2571;DHT22;1295;51.130;6.732;2022-11-23T13:37:07;10.50;99.90
2571;DHT22;1295;51.130;6.732;2022-11-23T13:39:59;10.80;99.90
2571;DHT22;1295;51.130;6.732;2022-11-23T13:42:24;10.60;99.90
2571;DHT22;1295;51.130;6.732;2022-11-23T13:45:11;10.50;99.90
2571;DHT22;1295;51.130;6.732;2022-11-23T13:47:17;10.30;99.90
2571;DHT22;1295;51.130;6.732;2022-11-23T13:49:44;10.40;99.90
2571;DHT22;1295;51.130;6.732;2022-11-23T13:52:28;10.20;99.90
2571;DHT22;1295;51.130;6.732;2022-11-23T13:54:54;10.20;99.90
2571;DHT22;1295;51.130;6.732;2022-11-23T13:57:20;10.30;99.90
2571;DHT22;1295;51.130;6.732;2022-11-23T13:59:45;10.40;99.90
2571;DHT22;1295;51.130;6.732;2022-11-23T14:02:27;10.40;99.90
2571;DHT22;1295;51.130;6.732;2022-11-23T14:04:52;10.10;99.90
2571;DHT22;1295;51.130;6.732;2022-11-23T14:07:21;10.40;99.90
2571;DHT22;1295;51.130;6.732;2022-11-23T14:10:04;10.30;99.90
2571;DHT22;1295;51.130;6.732;2022-11-23T14:12:35;10.60;99.90
2571;DHT22;1295;51.130;6.732;2022-11-23T14:15:11;10.30;99.90
2571;DHT22;1295;51.130;6.732;2022-11-23T14:17:45;10.70;99.90
2571;DHT22;1295;51.130;6.732;2022-11-23T14:20:16;10.50;99.90
2571;DHT22;1295;51.130;6.732;2022-11-23T14:23:19;10.50;99.90
2571;DHT22;1295;51.130;6.732;2022-11-23T14:25:43;10.30;99.90
2571;DHT22;1295;51.130;6.732;2022-11-23T14:28:31;10.40;99.90
2571;DHT22;1295;51.130;6.732;2022-11-23T14:31:09;10.40;99.90
2571;DHT22;1295;51.130;6.732;2022-11-23T14:34:08;10.30;99.90
2571;DHT22;1295;51.130;6.732;2022-11-23T14:36:24;10.40;99.90
2571;DHT22;1295;51.130;6.732;2022-11-23T14:40:20;10.40;99.90
2571;DHT22;1295;51.130;6.732;2022-11-23T14:41:53;10.40;99.90
2571;DHT22;1295;51.130;6.732;2022-11-23T14:44:20;10.30;99.90
2571;DHT22;1295;51.130;6.732;2022-11-23T14:49:22;10.20;99.90
2571;DHT22;1295;51.130;6.732;2022-11-23T14:51:48;10.20;99.90
2571;DHT22;1295;51.130;6.732;2022-11-23T14:54:14;10.40;99.90
2571;DHT22;1295;51.130;6.732;2022-11-23T14:56:41;10.50;99.90
2571;DHT22;1295;51.130;6.732;2022-11-23T14:59:08;10.60;99.90
2571;DHT22;1295;51.130;6.732;2022-11-23T15:01:33;10.70;99.90
2571;DHT22;1295;51.130;6.732;2022-11-23T15:03:59;10.70;99.90
2571;DHT22;1295;51.130;6.732;2022-11-23T15:06:26;10.60;99.90
2571;DHT22;1295;51.130;6.732;2022-11-23T15:09:07;10.50;99.90
2571;DHT22;1295;51.130;6.732;2022-11-23T15:11:35;10.30;99.90
2571;DHT22;1295;51.130;6.732;2022-11-23T15:13:59;10.30;99.90
2571;DHT22;1295;51.130;6.732;2022-11-23T15:16:27;10.20;99.90
2571;DHT22;1295;51.130;6.732;2022-11-23T15:18:53;10.30;99.90
2571;DHT22;1295;51.130;6.732;2022-11-23T15:21:21;10.40;99.90
2571;DHT22;1295;51.130;6.732;2022-11-23T15:23:47;10.30;99.90
2571;DHT22;1295;51.130;6.732;2022-11-23T15:26:23;10.20;99.90
2571;DHT22;1295;51.130;6.732;2022-11-23T15:28:49;10.20;99.90
2571;DHT22;1295;51.130;6.732;2022-11-23T15:31:18;10.10;99.90
2571;DHT22;1295;51.130;6.732;2022-11-23T15:33:44;10.00;99.90
2571;DHT22;1295;51.130;6.732;2022-11-23T15:36:09;10.10;99.90
2571;DHT22;1295;51.130;6.732;2022-11-23T15:38:35;10.00;99.90
2571;DHT22;1295;51.130;6.732;2022-11-23T15:41:04;9.90;99.90
2571;DHT22;1295;51.130;6.732;2022-11-23T15:43:29;9.90;99.90
2571;DHT22;1295;51.130;6.732;2022-11-23T15:45:59;9.90;99.90
2571;DHT22;1295;51.130;6.732;2022-11-23T15:48:26;10.00;99.90
2571;DHT22;1295;51.130;6.732;2022-11-23T15:50:53;9.90;99.90
2571;DHT22;1295;51.130;6.732;2022-11-23T15:53:18;9.80;99.90
2571;DHT22;1295;51.130;6.732;2022-11-23T15:55:43;9.90;99.90
2571;DHT22;1295;51.130;6.732;2022-11-23T15:58:09;9.80;99.90
2571;DHT22;1295;51.130;6.732;2022-11-23T16:00:34;9.90;99.90
2571;DHT22;1295;51.130;6.732;2022-11-23T16:05:38;9.80;99.90
2571;DHT22;1295;51.130;6.732;2022-11-23T16:08:21;9.70;99.90
2571;DHT22;1295;51.130;6.732;2022-11-23T16:10:31;9.80;99.90
2571;DHT22;1295;51.130;6.732;2022-11-23T16:12:57;9.80;99.90
2571;DHT22;1295;51.130;6.732;2022-11-23T16:15:31;9.90;99.90
2571;DHT22;1295;51.130;6.732;2022-11-23T16:17:56;9.80;99.90
2571;DHT22;1295;51.130;6.732;2022-11-23T16:20:22;9.70;99.90
2571;DHT22;1295;51.130;6.732;2022-11-23T16:22:47;9.70;99.90
2571;DHT22;1295;51.130;6.732;2022-11-23T16:25:25;9.80;99.90
2571;DHT22;1295;51.130;6.732;2022-11-23T16:28:00;9.80;99.90
2571;DHT22;1295;51.130;6.732;2022-11-23T16:30:26;9.80;99.90
2571;DHT22;1295;51.130;6.732;2022-11-23T16:32:51;9.80;99.90
2571;DHT22;1295;51.130;6.732;2022-11-23T16:35:17;9.80;99.90
2571;DHT22;1295;51.130;6.732;2022-11-23T16:37:43;9.40;99.90
2571;DHT22;1295;51.130;6.732;2022-11-23T16:40:09;9.30;99.90
2571;DHT22;1295;51.130;6.732;2022-11-23T16:42:35;9.40;99.90
2571;DHT22;1295;51.130;6.732;2022-11-23T16:45:01;9.60;99.90